CYXZ

Wawa Airport

Wawa, Ontario, Canada
TAF CYXZ 211940Z 2120/2124 04007KT 6SM FU BKN070 OVC120 TEMPO 2120/2124 4SM SHRA BR PROB30 2120/2124 2SM TSRA BR BKN020 OVC050CB RMK NXT FCST WILL BE ISSUED AT 221245Z
Issued Valid From Valid To
Jul-21 @ 19:40 UTC
(3 hours ago)
Jul-21 @ 20:00 UTC
(3 hours ago)
Jul-22 @ 00:00 UTC
(in 57 minutes)
Jul-21 @ 20:00 to Jul-22 @ 00:00
TAF CYXZ 211940Z 2120/2124 04007KT 6SM FU BKN070 OVC120
Wind Visibility Clouds Conditions
40° at 7 knots 6 miles
  • Broken at 7,000' AGL
  • Overcast at 12,000' AGL
  • Smoke
Probable  (Probability 30%) Jul-21 @ 20:00 to Jul-22 @ 00:00
PROB30 2120/2124 2SM TSRA BR BKN020 OVC050CB RMK NXT FCST WILL BE ISSUED AT 221245Z
Visibility Clouds Conditions
2 miles
  • Broken at 2,000' AGL
  • Overcast at 5,000' AGL
  • Thunderstorm
  • Rain
  • Mist
Temporary Jul-21 @ 20:00 to Jul-22 @ 00:00
TEMPO 2120/2124 4SM SHRA BR
Visibility Conditions
4 miles
  • Rain
  • Mist
TAF CYXZ 211940Z 2120/2124 04007KT 6SM FU BKN070 OVC120 TEMPO 2120/2124 4SM SHRA BR PROB30 2120/2124 2SM TSRA BR BKN020 OVC050CB RMK NXT FCST WILL BE ISSUED AT 221245Z
Issued Jul-21 @ 19:40 UTC
(3 hours ago)
Valid From Jul-21 @ 20:00 UTC
(3 hours ago)
Valid To Jul-22 @ 00:00 UTC
(in 57 minutes)
Jul-21 @ 20:00 - Jul-22 @ 00:00
Wind Visibility
40° at 7 knots 6 miles
Clouds
  • Broken at 7,000' AGL
  • Overcast at 12,000' AGL
Conditions
  • Smoke
Probability 30% Probable Jul-21 @ 20:00 - Jul-22 @ 00:00
Clouds
  • Broken at 2,000' AGL
  • Overcast at 5,000' AGL
Conditions
  • Thunderstorm
  • Rain
  • Mist
Temporary Jul-21 @ 20:00 - Jul-22 @ 00:00
Conditions
  • Rain
  • Mist